createdAt,value
2018-08-28T01:00:32.384Z,1007.62
2018-08-28T01:01:32.332Z,1007.55
2018-08-28T01:02:32.331Z,1007.59
2018-08-28T01:03:32.309Z,1007.55
2018-08-28T01:04:32.297Z,1007.62
2018-08-28T01:05:32.337Z,1007.59
2018-08-28T01:06:32.275Z,1007.55
2018-08-28T01:07:32.264Z,1007.52
2018-08-28T01:08:32.275Z,1007.55
2018-08-28T01:09:32.242Z,1007.56
2018-08-28T01:10:32.280Z,1007.54
2018-08-28T01:11:32.220Z,1007.58
2018-08-28T01:12:32.209Z,1007.57
2018-08-28T01:13:32.197Z,1007.56
2018-08-28T01:14:32.211Z,1007.55
2018-08-28T01:15:32.223Z,1007.58
2018-08-28T01:16:32.164Z,1007.61
2018-08-28T01:17:32.158Z,1007.57
2018-08-28T01:18:32.141Z,1007.57
2018-08-28T01:19:32.130Z,1007.60
2018-08-28T01:20:32.171Z,1007.53
2018-08-28T01:21:32.115Z,1007.59
2018-08-28T01:22:32.111Z,1007.54
2018-08-28T01:23:32.086Z,1007.56
2018-08-28T01:24:32.087Z,1007.61
2018-08-28T01:25:32.115Z,1007.60
2018-08-28T01:26:32.072Z,1007.66
2018-08-28T01:27:32.045Z,1007.62
2018-08-28T01:28:32.032Z,1007.66
2018-08-28T01:29:32.018Z,1007.64
2018-08-28T01:30:32.070Z,1007.72
2018-08-28T01:31:32.001Z,1007.66
2018-08-28T01:32:31.985Z,1007.69
2018-08-28T01:33:31.980Z,1007.69
2018-08-28T01:34:31.962Z,1007.72
2018-08-28T01:35:32.012Z,1007.73
2018-08-28T01:36:31.939Z,1007.72
2018-08-28T01:37:31.935Z,1007.73
2018-08-28T01:38:31.920Z,1007.73
2018-08-28T01:39:31.905Z,1007.73
2018-08-28T01:40:31.964Z,1007.70
2018-08-28T01:41:31.885Z,1007.69
2018-08-28T01:42:31.872Z,1007.71
2018-08-28T01:43:31.888Z,1007.71
2018-08-28T01:44:31.874Z,1007.69
2018-08-28T01:45:31.894Z,1007.74
2018-08-28T01:46:31.826Z,1007.73
2018-08-28T01:47:31.816Z,1007.72
2018-08-28T01:48:31.822Z,1007.73
2018-08-28T01:49:31.821Z,1007.77
2018-08-28T01:50:31.884Z,1007.75
2018-08-28T01:51:31.779Z,1007.77
2018-08-28T01:52:31.781Z,1007.77
2018-08-28T01:53:31.749Z,1007.72
2018-08-28T01:54:31.745Z,1007.73
2018-08-28T01:55:31.770Z,1007.75
2018-08-28T01:56:31.713Z,1007.73
2018-08-28T01:57:31.703Z,1007.70
2018-08-28T01:58:31.690Z,1007.70
2018-08-28T01:59:31.682Z,1007.77
2018-08-28T02:00:31.715Z,1007.71
2018-08-28T02:01:31.660Z,1007.73
2018-08-28T02:02:31.646Z,1007.74
2018-08-28T02:03:31.636Z,1007.76
2018-08-28T02:04:31.625Z,1007.71
2018-08-28T02:05:31.661Z,1007.73
2018-08-28T02:06:31.607Z,1007.71
2018-08-28T02:07:31.590Z,1007.72
2018-08-28T02:08:31.578Z,1007.76
2018-08-28T02:09:31.567Z,1007.73
2018-08-28T02:10:31.602Z,1007.70
2018-08-28T02:11:31.545Z,1007.74
2018-08-28T02:12:31.537Z,1007.71
2018-08-28T02:13:31.522Z,1007.76
2018-08-28T02:14:31.514Z,1007.76
2018-08-28T02:15:31.547Z,1007.74
2018-08-28T02:16:31.487Z,1007.72
2018-08-28T02:17:31.480Z,1007.75
2018-08-28T02:18:31.478Z,1007.71
2018-08-28T02:19:31.455Z,1007.78
2018-08-28T02:20:31.496Z,1007.70
2018-08-28T02:21:31.431Z,1007.71
2018-08-28T02:22:31.424Z,1007.75
2018-08-28T02:23:31.415Z,1007.73
2018-08-28T02:24:31.413Z,1007.76
2018-08-28T02:25:31.452Z,1007.80
2018-08-28T02:26:31.377Z,1007.79
2018-08-28T02:27:31.374Z,1007.79
2018-08-28T02:28:31.358Z,1007.78
2018-08-28T02:29:31.346Z,1007.82
2018-08-28T02:30:31.384Z,1007.80
2018-08-28T02:31:31.322Z,1007.78
2018-08-28T02:32:31.311Z,1007.79
2018-08-28T02:33:31.337Z,1007.79
2018-08-28T02:34:31.295Z,1007.78
2018-08-28T02:35:31.334Z,1007.79
2018-08-28T02:36:31.270Z,1007.80
2018-08-28T02:37:31.256Z,1007.80
2018-08-28T02:38:31.249Z,1007.82
2018-08-28T02:39:31.234Z,1007.76
2018-08-28T02:40:31.274Z,1007.78
2018-08-28T02:41:31.226Z,1007.81
2018-08-28T02:42:31.201Z,1007.80
2018-08-28T02:43:31.190Z,1007.89
2018-08-28T02:44:31.182Z,1007.87
2018-08-28T02:45:31.224Z,1007.84
2018-08-28T02:46:31.160Z,1007.84
2018-08-28T02:47:31.155Z,1007.85
2018-08-28T02:48:31.136Z,1007.83
2018-08-28T02:49:31.124Z,1007.84
2018-08-28T02:50:31.161Z,1007.83
2018-08-28T02:51:31.106Z,1007.83
2018-08-28T02:52:31.095Z,1007.83
2018-08-28T02:53:31.099Z,1007.84
2018-08-28T02:54:31.069Z,1007.81
2018-08-28T02:55:31.111Z,1007.82
2018-08-28T02:56:31.051Z,1007.83
2018-08-28T02:57:31.041Z,1007.80
2018-08-28T02:58:31.037Z,1007.79
2018-08-28T02:59:31.018Z,1007.80
2018-08-28T03:00:31.004Z,1007.83
2018-08-28T03:01:31.045Z,1007.84
2018-08-28T03:02:30.982Z,1007.85
2018-08-28T03:03:30.975Z,1007.84
2018-08-28T03:04:30.967Z,1007.85
2018-08-28T03:05:30.952Z,1007.87
2018-08-28T03:06:31.028Z,1007.84
2018-08-28T03:07:30.930Z,1007.92
2018-08-28T03:08:30.925Z,1007.89
2018-08-28T03:09:30.907Z,1007.93
2018-08-28T03:10:30.899Z,1007.93
2018-08-28T03:11:31.009Z,1007.89
2018-08-28T03:12:30.871Z,1007.91
2018-08-28T03:13:30.863Z,1007.90
2018-08-28T03:14:30.853Z,1007.90
2018-08-28T03:15:30.916Z,1007.90
2018-08-28T03:16:30.880Z,1007.95
2018-08-28T03:17:30.816Z,1007.95
2018-08-28T03:18:30.805Z,1007.95
2018-08-28T03:19:30.802Z,1007.98
2018-08-28T03:20:30.783Z,1007.97
2018-08-28T03:21:30.820Z,1008.00
2018-08-28T03:22:30.767Z,1008.02
2018-08-28T03:23:30.750Z,1008.03
2018-08-28T03:24:30.743Z,1008.03
2018-08-28T03:25:30.733Z,1008.00
2018-08-28T03:26:30.775Z,1008.02
2018-08-28T03:27:30.709Z,1007.98
2018-08-28T03:28:30.694Z,1008.05
2018-08-28T03:29:30.687Z,1008.00
2018-08-28T03:30:30.685Z,1008.02
2018-08-28T03:31:30.708Z,1007.98
2018-08-28T03:32:30.648Z,1008.02
2018-08-28T03:33:30.646Z,1008.03
2018-08-28T03:34:30.629Z,1008.05
2018-08-28T03:35:30.621Z,1008.00
2018-08-28T03:36:30.652Z,1008.01
2018-08-28T03:37:30.604Z,1008.08
2018-08-28T03:38:30.593Z,1008.05
2018-08-28T03:39:30.578Z,1008.05
2018-08-28T03:40:30.563Z,1008.04
2018-08-28T03:41:30.597Z,1008.02
2018-08-28T03:42:30.550Z,1008.07
2018-08-28T03:43:30.528Z,1008.07
2018-08-28T03:44:30.520Z,1008.06
2018-08-28T03:45:30.505Z,1008.11
2018-08-28T03:46:30.541Z,1008.15
2018-08-28T03:47:30.487Z,1008.10
2018-08-28T03:48:30.476Z,1008.15
2018-08-28T03:49:30.460Z,1008.15
2018-08-28T03:50:30.454Z,1008.11
2018-08-28T03:51:30.528Z,1008.14
2018-08-28T03:52:30.441Z,1008.14
2018-08-28T03:53:30.415Z,1008.14
2018-08-28T03:54:30.406Z,1008.13
2018-08-28T03:55:30.473Z,1008.11
2018-08-28T03:56:30.430Z,1008.19
2018-08-28T03:57:30.374Z,1008.16
2018-08-28T03:58:30.363Z,1008.16
2018-08-28T03:59:30.351Z,1008.17
2018-08-28T04:00:30.338Z,1008.16
2018-08-28T04:01:30.379Z,1008.20
2018-08-28T04:02:30.319Z,1008.18
2018-08-28T04:03:30.343Z,1008.16
2018-08-28T04:04:30.296Z,1008.10
2018-08-28T04:05:30.287Z,1008.15
2018-08-28T04:06:30.320Z,1008.15
2018-08-28T04:07:30.269Z,1008.17
2018-08-28T04:08:30.254Z,1008.16
2018-08-28T04:09:30.241Z,1008.18
2018-08-28T04:10:30.231Z,1008.19
2018-08-28T04:11:30.265Z,1008.17
2018-08-28T04:12:30.207Z,1008.18
2018-08-28T04:13:30.193Z,1008.20
2018-08-28T04:14:30.186Z,1008.26
2018-08-28T04:15:30.218Z,1008.22
2018-08-28T04:16:30.212Z,1008.22
2018-08-28T04:17:30.165Z,1008.24
2018-08-28T04:18:30.139Z,1008.25
2018-08-28T04:19:30.133Z,1008.24
2018-08-28T04:20:30.123Z,1008.25
2018-08-28T04:21:30.161Z,1008.31
2018-08-28T04:22:30.142Z,1008.29
2018-08-28T04:23:30.084Z,1008.30
2018-08-28T04:24:30.075Z,1008.28
2018-08-28T04:25:30.074Z,1008.30
2018-08-28T04:26:30.131Z,1008.31
2018-08-28T04:27:30.062Z,1008.29
2018-08-28T04:28:30.025Z,1008.30
2018-08-28T04:29:30.020Z,1008.30
2018-08-28T04:30:30.038Z,1008.26
2018-08-28T04:31:30.047Z,1008.27
2018-08-28T04:32:29.990Z,1008.32
2018-08-28T04:33:29.973Z,1008.35
2018-08-28T04:34:29.961Z,1008.34
2018-08-28T04:35:29.951Z,1008.36
2018-08-28T04:36:29.995Z,1008.31
2018-08-28T04:37:29.937Z,1008.38
2018-08-28T04:38:29.916Z,1008.36
2018-08-28T04:39:29.903Z,1008.37
2018-08-28T04:40:29.898Z,1008.37
2018-08-28T04:41:29.931Z,1008.35
2018-08-28T04:42:29.871Z,1008.39
2018-08-28T04:43:29.858Z,1008.42
2018-08-28T04:44:29.851Z,1008.42
2018-08-28T04:45:29.836Z,1008.40
2018-08-28T04:46:29.871Z,1008.39
2018-08-28T04:47:29.819Z,1008.37
2018-08-28T04:48:29.857Z,1008.41
2018-08-28T04:49:29.795Z,1008.42
2018-08-28T04:50:29.781Z,1008.44
2018-08-28T04:51:29.824Z,1008.46
2018-08-28T04:52:29.832Z,1008.48
2018-08-28T04:53:29.761Z,1008.54
2018-08-28T04:54:29.736Z,1008.52
2018-08-28T04:55:29.728Z,1008.53
2018-08-28T04:56:29.763Z,1008.51
2018-08-28T04:57:29.704Z,1008.54
2018-08-28T04:58:29.698Z,1008.53
2018-08-28T04:59:29.687Z,1008.56
2018-08-28T05:00:29.710Z,1008.55
2018-08-28T05:01:29.720Z,1008.59
2018-08-28T05:02:29.652Z,1008.60
2018-08-28T05:03:29.636Z,1008.62
2018-08-28T05:04:29.626Z,1008.62
2018-08-28T05:05:29.617Z,1008.61
2018-08-28T05:06:29.648Z,1008.60
2018-08-28T05:07:29.593Z,1008.61
2018-08-28T05:08:29.586Z,1008.60
2018-08-28T05:09:29.571Z,1008.62
2018-08-28T05:10:29.559Z,1008.64
2018-08-28T05:11:29.593Z,1008.65
2018-08-28T05:12:29.544Z,1008.62
2018-08-28T05:13:29.526Z,1008.66
2018-08-28T05:14:29.530Z,1008.72
2018-08-28T05:15:29.505Z,1008.64
2018-08-28T05:16:29.553Z,1008.65
2018-08-28T05:17:29.481Z,1008.66
2018-08-28T05:18:29.473Z,1008.70
2018-08-28T05:19:29.499Z,1008.72
2018-08-28T05:20:29.450Z,1008.76
2018-08-28T05:21:29.444Z,1008.65
2018-08-28T05:22:29.476Z,1008.74
2018-08-28T05:23:29.415Z,1008.71
2018-08-28T05:24:29.406Z,1008.72
2018-08-28T05:25:29.394Z,1008.70
2018-08-28T05:26:29.380Z,1008.70
2018-08-28T05:27:29.416Z,1008.72
2018-08-28T05:28:29.360Z,1008.68
2018-08-28T05:29:29.353Z,1008.69
2018-08-28T05:30:29.358Z,1008.66
2018-08-28T05:31:29.325Z,1008.66
2018-08-28T05:32:29.363Z,1008.66
2018-08-28T05:33:29.303Z,1008.70
2018-08-28T05:34:29.293Z,1008.71
2018-08-28T05:35:29.285Z,1008.71
2018-08-28T05:36:29.299Z,1008.79
2018-08-28T05:37:29.305Z,1008.73
2018-08-28T05:38:29.252Z,1008.78
2018-08-28T05:39:29.234Z,1008.81
2018-08-28T05:40:29.225Z,1008.82
2018-08-28T05:41:29.218Z,1008.84
2018-08-28T05:42:29.247Z,1008.80
2018-08-28T05:43:29.195Z,1008.81
2018-08-28T05:44:29.185Z,1008.84
2018-08-28T05:45:29.168Z,1008.83
2018-08-28T05:46:29.159Z,1008.83
2018-08-28T05:47:29.199Z,1008.85
2018-08-28T05:48:29.136Z,1008.87
2018-08-28T05:49:29.183Z,1008.85
2018-08-28T05:50:29.121Z,1008.85
2018-08-28T05:51:29.101Z,1008.89
2018-08-28T05:52:29.142Z,1008.89
2018-08-28T05:53:29.081Z,1008.89
2018-08-28T05:54:29.068Z,1008.90
2018-08-28T05:55:29.061Z,1008.89
2018-08-28T05:56:29.056Z,1008.88
2018-08-28T05:57:29.080Z,1008.84
2018-08-28T05:58:29.025Z,1008.88
2018-08-28T05:59:29.064Z,1008.87
2018-08-28T06:00:29.003Z,1008.92
2018-08-28T06:01:28.996Z,1008.89
2018-08-28T06:02:29.032Z,1008.93
2018-08-28T06:03:29.231Z,1008.88
2018-08-28T06:04:28.956Z,1008.88
2018-08-28T06:05:29.047Z,1008.87
2018-08-28T06:06:28.936Z,1008.91
2018-08-28T06:07:29.010Z,1008.88
2018-08-28T06:08:28.934Z,1008.90
2018-08-28T06:09:28.900Z,1008.92
2018-08-28T06:10:28.894Z,1008.92
2018-08-28T06:11:28.895Z,1008.93
2018-08-28T06:12:28.920Z,1008.94
2018-08-28T06:13:28.874Z,1008.95
2018-08-28T06:14:28.847Z,1008.94
2018-08-28T06:15:28.834Z,1008.93
2018-08-28T06:16:28.826Z,1008.95
2018-08-28T06:17:28.920Z,1008.98
2018-08-28T06:18:28.803Z,1008.94
2018-08-28T06:19:28.791Z,1008.97
2018-08-28T06:20:28.780Z,1009.00
2018-08-28T06:21:28.770Z,1008.93
2018-08-28T06:22:28.803Z,1009.03
2018-08-28T06:23:28.748Z,1008.93
2018-08-28T06:24:28.748Z,1008.95
2018-08-28T06:25:28.724Z,1008.95
2018-08-28T06:26:28.776Z,1008.94
2018-08-28T06:27:28.761Z,1008.99
2018-08-28T06:28:28.692Z,1008.97
2018-08-28T06:29:28.692Z,1008.99
2018-08-28T06:30:28.687Z,1008.99
2018-08-28T06:31:28.658Z,1008.93
2018-08-28T06:32:28.708Z,1008.98
2018-08-28T06:33:28.641Z,1008.99
2018-08-28T06:34:28.630Z,1008.96
2018-08-28T06:35:28.622Z,1008.94
2018-08-28T06:36:28.615Z,1008.97
2018-08-28T06:37:28.650Z,1008.93
2018-08-28T06:38:28.581Z,1008.93
2018-08-28T06:39:28.568Z,1008.96
2018-08-28T06:40:28.568Z,1008.93
2018-08-28T06:41:28.550Z,1008.88
2018-08-28T06:42:28.607Z,1008.90
2018-08-28T06:43:28.590Z,1008.90
2018-08-28T06:44:28.514Z,1008.86
2018-08-28T06:45:28.503Z,1008.88
2018-08-28T06:46:28.493Z,1008.87
2018-08-28T06:47:28.540Z,1008.89
2018-08-28T06:48:28.467Z,1008.89
2018-08-28T06:49:28.464Z,1008.88
2018-08-28T06:50:28.444Z,1008.85
2018-08-28T06:51:28.436Z,1008.91
2018-08-28T06:52:28.474Z,1008.92
2018-08-28T06:53:28.410Z,1008.90
2018-08-28T06:54:28.398Z,1008.95
2018-08-28T06:55:28.395Z,1008.94
2018-08-28T06:56:28.380Z,1008.96
2018-08-28T06:57:28.412Z,1008.96
2018-08-28T06:58:28.363Z,1008.95
2018-08-28T06:59:28.342Z,1008.91
2018-08-28T07:00:28.331Z,1008.91
2018-08-28T07:01:28.320Z,1008.98
2018-08-28T07:02:28.389Z,1008.92
2018-08-28T07:03:28.315Z,1008.96
2018-08-28T07:04:28.294Z,1008.96
2018-08-28T07:05:28.280Z,1008.98
2018-08-28T07:06:28.263Z,1008.98
2018-08-28T07:07:28.305Z,1008.97
2018-08-28T07:08:28.260Z,1008.96
2018-08-28T07:09:28.232Z,1008.91
2018-08-28T07:10:28.223Z,1008.93
2018-08-28T07:11:28.212Z,1008.92
2018-08-28T07:12:28.196Z,1008.91
2018-08-28T07:13:28.234Z,1008.91
2018-08-28T07:14:28.188Z,1008.92
2018-08-28T07:15:28.184Z,1008.87
2018-08-28T07:16:28.153Z,1008.90
2018-08-28T07:17:28.146Z,1008.93
2018-08-28T07:18:28.529Z,1008.87
2018-08-28T07:19:28.970Z,1008.88
2018-08-28T07:20:28.142Z,1008.87
2018-08-28T07:21:28.130Z,1008.89
2018-08-28T07:22:28.114Z,1008.90
2018-08-28T07:23:28.208Z,1008.88
2018-08-28T07:24:28.080Z,1008.87
2018-08-28T07:25:28.125Z,1008.84
2018-08-28T07:26:28.041Z,1008.76
2018-08-28T07:27:28.148Z,1008.80
2018-08-28T07:28:28.068Z,1008.82
2018-08-28T07:29:28.010Z,1008.86
2018-08-28T07:30:28.001Z,1008.83
2018-08-28T07:31:28.097Z,1008.83
2018-08-28T07:32:27.976Z,1008.79
2018-08-28T07:33:28.027Z,1008.83
2018-08-28T07:34:27.977Z,1008.82
2018-08-28T07:35:27.944Z,1008.85
2018-08-28T07:36:27.934Z,1008.82
2018-08-28T07:37:27.931Z,1008.85
2018-08-28T07:38:27.960Z,1008.86
2018-08-28T07:39:27.906Z,1008.81
2018-08-28T07:40:27.888Z,1008.77
2018-08-28T07:41:27.893Z,1008.78
2018-08-28T07:42:27.870Z,1008.81
2018-08-28T07:43:27.902Z,1008.78
2018-08-28T07:44:27.845Z,1008.74
2018-08-28T07:45:27.831Z,1008.82
2018-08-28T07:46:27.820Z,1008.78
2018-08-28T07:47:27.821Z,1008.74
2018-08-28T07:48:27.987Z,1008.72
2018-08-28T07:49:27.792Z,1008.75
2018-08-28T07:50:27.774Z,1008.75
2018-08-28T07:51:27.767Z,1008.74
2018-08-28T07:52:27.753Z,1008.75
2018-08-28T07:53:27.787Z,1008.73
2018-08-28T07:54:27.732Z,1008.72
2018-08-28T07:55:27.728Z,1008.80
2018-08-28T07:56:27.715Z,1008.80
2018-08-28T07:57:27.699Z,1008.79
2018-08-28T07:58:27.741Z,1008.80
2018-08-28T07:59:27.676Z,1008.79
2018-08-28T08:00:27.668Z,1008.82
2018-08-28T08:01:27.742Z,1008.86
2018-08-28T08:02:27.642Z,1008.89
2018-08-28T08:03:27.680Z,1008.91
2018-08-28T08:04:27.625Z,1008.94
2018-08-28T08:05:27.609Z,1008.91
2018-08-28T08:06:27.598Z,1008.91
2018-08-28T08:07:27.590Z,1008.91
2018-08-28T08:08:27.621Z,1008.90
2018-08-28T08:09:27.573Z,1008.91
2018-08-28T08:10:27.624Z,1008.94
2018-08-28T08:11:27.543Z,1008.95
2018-08-28T08:12:27.530Z,1008.99
2018-08-28T08:13:27.568Z,1008.96
2018-08-28T08:14:27.509Z,1008.97
2018-08-28T08:15:27.506Z,1008.95
2018-08-28T08:16:27.486Z,1008.99
2018-08-28T08:17:27.476Z,1009.02
2018-08-28T08:18:27.512Z,1009.02
2018-08-28T08:19:27.481Z,1008.99
2018-08-28T08:20:27.445Z,1008.97
2018-08-28T08:21:27.436Z,1008.99
2018-08-28T08:22:27.420Z,1009.04
2018-08-28T08:23:27.456Z,1008.98
2018-08-28T08:24:27.405Z,1008.91
2018-08-28T08:25:27.387Z,1009.02
2018-08-28T08:26:27.378Z,1009.00
2018-08-28T08:27:27.369Z,1008.99
2018-08-28T08:28:27.402Z,1009.00
2018-08-28T08:29:27.347Z,1009.03
2018-08-28T08:30:27.349Z,1009.03
2018-08-28T08:31:27.322Z,1009.04
2018-08-28T08:32:27.310Z,1009.06
2018-08-28T08:33:27.348Z,1009.04
2018-08-28T08:34:27.288Z,1008.98
2018-08-28T08:35:27.523Z,1009.03
2018-08-28T08:36:27.281Z,1008.95
2018-08-28T08:37:27.258Z,1008.91
2018-08-28T08:38:27.291Z,1008.96
2018-08-28T08:39:27.235Z,1008.95
2018-08-28T08:40:27.221Z,1008.94
2018-08-28T08:41:27.251Z,1009.01
2018-08-28T08:42:27.198Z,1008.96
2018-08-28T08:43:27.234Z,1008.94
2018-08-28T08:44:27.209Z,1008.93
2018-08-28T08:45:27.165Z,1008.91
2018-08-28T08:46:27.171Z,1008.93
2018-08-28T08:47:27.148Z,1008.91
2018-08-28T08:48:27.179Z,1008.92
2018-08-28T08:49:27.128Z,1008.98
2018-08-28T08:50:27.110Z,1008.97
2018-08-28T08:51:27.098Z,1009.00
2018-08-28T08:52:27.088Z,1008.99
2018-08-28T08:53:27.120Z,1009.05
2018-08-28T08:54:27.068Z,1008.96
2018-08-28T08:55:27.052Z,1008.99
2018-08-28T08:56:27.041Z,1008.98
2018-08-28T08:57:27.061Z,1008.94
2018-08-28T08:58:27.067Z,1008.93
2018-08-28T08:59:27.015Z,1008.95
2018-08-28T09:00:27.001Z,1008.87
2018-08-28T09:01:26.987Z,1008.89
2018-08-28T09:02:26.975Z,1008.86
2018-08-28T09:03:27.012Z,1008.87
2018-08-28T09:04:26.970Z,1008.81
2018-08-28T09:05:26.942Z,1008.84
2018-08-28T09:06:26.933Z,1008.78
2018-08-28T09:07:26.918Z,1008.80
2018-08-28T09:08:26.963Z,1008.77
2018-08-28T09:09:26.896Z,1008.77
2018-08-28T09:10:26.900Z,1008.80
2018-08-28T09:11:26.875Z,1008.77
2018-08-28T09:12:26.862Z,1008.83
2018-08-28T09:13:27.015Z,1008.86
2018-08-28T09:14:26.841Z,1008.81
2018-08-28T09:15:26.830Z,1008.82
2018-08-28T09:16:26.816Z,1008.80
2018-08-28T09:17:26.815Z,1008.79
2018-08-28T09:18:26.849Z,1008.81
2018-08-28T09:19:26.876Z,1008.80
2018-08-28T09:20:26.770Z,1008.79
2018-08-28T09:21:26.763Z,1008.80
2018-08-28T09:22:26.746Z,1008.78
2018-08-28T09:23:26.784Z,1008.78
2018-08-28T09:24:26.732Z,1008.79
2018-08-28T09:25:26.715Z,1008.82
2018-08-28T09:26:26.704Z,1008.77
2018-08-28T09:27:26.699Z,1008.75
2018-08-28T09:28:26.725Z,1008.71
2018-08-28T09:29:26.671Z,1008.82
2018-08-28T09:30:26.661Z,1008.80
2018-08-28T09:31:26.654Z,1008.80
2018-08-28T09:32:26.785Z,1008.82
2018-08-28T09:33:26.674Z,1008.79
2018-08-28T09:34:26.611Z,1008.71
2018-08-28T09:35:26.603Z,1008.74
2018-08-28T09:36:26.599Z,1008.72
2018-08-28T09:37:26.579Z,1008.72
2018-08-28T09:38:26.630Z,1008.67
2018-08-28T09:39:26.603Z,1008.69
2018-08-28T09:40:26.545Z,1008.66
2018-08-28T09:41:26.554Z,1008.65
2018-08-28T09:42:26.566Z,1008.72
2018-08-28T09:43:26.516Z,1008.68
2018-08-28T09:44:26.555Z,1008.66
2018-08-28T09:45:26.489Z,1008.66
2018-08-28T09:46:26.481Z,1008.68
2018-08-28T09:47:26.468Z,1008.65
2018-08-28T09:48:26.466Z,1008.64
2018-08-28T09:49:26.494Z,1008.66
2018-08-28T09:50:26.471Z,1008.64
2018-08-28T09:51:26.424Z,1008.63
2018-08-28T09:52:26.410Z,1008.58
2018-08-28T09:53:26.414Z,1008.60
2018-08-28T09:54:26.432Z,1008.59
2018-08-28T09:55:26.384Z,1008.54
2018-08-28T09:56:26.420Z,1008.55
2018-08-28T09:57:26.358Z,1008.52
2018-08-28T09:58:26.354Z,1008.52
2018-08-28T09:59:26.380Z,1008.51
2018-08-28T10:00:26.322Z,1008.52
2018-08-28T10:01:26.309Z,1008.53
2018-08-28T10:02:26.304Z,1008.52
2018-08-28T10:03:26.288Z,1008.50
2018-08-28T10:04:26.331Z,1008.50
2018-08-28T10:05:26.264Z,1008.51
2018-08-28T10:06:26.257Z,1008.51
2018-08-28T10:07:26.251Z,1008.52
2018-08-28T10:08:26.231Z,1008.56
2018-08-28T10:09:26.282Z,1008.53
2018-08-28T10:10:26.217Z,1008.57
2018-08-28T10:11:26.204Z,1008.57
2018-08-28T10:12:26.196Z,1008.54
2018-08-28T10:13:26.181Z,1008.54
2018-08-28T10:14:26.214Z,1008.56
2018-08-28T10:15:26.157Z,1008.49
2018-08-28T10:16:26.147Z,1008.51
2018-08-28T10:17:26.193Z,1008.49
2018-08-28T10:18:26.129Z,1008.45
2018-08-28T10:19:26.154Z,1008.44
2018-08-28T10:20:26.099Z,1008.45
2018-08-28T10:21:26.088Z,1008.44
2018-08-28T10:22:26.076Z,1008.44
2018-08-28T10:23:26.065Z,1008.38
2018-08-28T10:24:26.100Z,1008.42
2018-08-28T10:25:26.076Z,1008.39
2018-08-28T10:26:26.033Z,1008.38
2018-08-28T10:27:26.022Z,1008.35
2018-08-28T10:28:26.009Z,1008.33
2018-08-28T10:29:26.068Z,1008.28
2018-08-28T10:30:26.140Z,1008.29
2018-08-28T10:31:25.977Z,1008.36
2018-08-28T10:32:25.967Z,1008.32
2018-08-28T10:33:25.997Z,1008.31
2018-08-28T10:34:25.992Z,1008.34
2018-08-28T10:35:25.934Z,1008.43
2018-08-28T10:36:25.921Z,1008.33
2018-08-28T10:37:25.914Z,1008.34
2018-08-28T10:38:25.903Z,1008.43
2018-08-28T10:39:25.937Z,1008.39
2018-08-28T10:40:25.879Z,1008.34
2018-08-28T10:41:25.871Z,1008.36
2018-08-28T10:42:25.856Z,1008.37
2018-08-28T10:43:25.850Z,1008.34
2018-08-28T10:44:25.885Z,1008.27
2018-08-28T10:45:25.825Z,1008.26
2018-08-28T10:46:25.849Z,1008.32
2018-08-28T10:47:25.807Z,1008.32
2018-08-28T10:48:25.797Z,1008.28
2018-08-28T10:49:25.837Z,1008.31
2018-08-28T10:50:25.767Z,1008.32
2018-08-28T10:51:25.756Z,1008.25
2018-08-28T10:52:25.748Z,1008.25
2018-08-28T10:53:25.734Z,1008.23
2018-08-28T10:54:25.790Z,1008.21
2018-08-28T10:55:25.712Z,1008.25
2018-08-28T10:56:25.700Z,1008.19
2018-08-28T10:57:25.695Z,1008.21
2018-08-28T10:58:25.682Z,1008.27
2018-08-28T10:59:25.718Z,1008.23
2018-08-28T11:00:25.662Z,1008.22
2018-08-28T11:01:25.647Z,1008.15
2018-08-28T11:02:25.636Z,1008.14
2018-08-28T11:03:25.634Z,1008.16
2018-08-28T11:04:25.710Z,1008.10
2018-08-28T11:05:25.605Z,1008.10
2018-08-28T11:06:25.605Z,1008.09
2018-08-28T11:07:25.582Z,1008.04
2018-08-28T11:08:25.572Z,1008.09
2018-08-28T11:09:25.640Z,1008.12
2018-08-28T11:10:25.549Z,1008.11
2018-08-28T11:11:25.539Z,1008.10
2018-08-28T11:12:25.526Z,1008.08
2018-08-28T11:13:25.518Z,1008.13
2018-08-28T11:14:25.552Z,1008.05
2018-08-28T11:15:25.494Z,1008.05
2018-08-28T11:16:25.484Z,1008.10
2018-08-28T11:17:25.477Z,1008.04
2018-08-28T11:18:25.518Z,1008.14
2018-08-28T11:19:25.523Z,1008.12
2018-08-28T11:20:25.441Z,1008.11
2018-08-28T11:21:25.432Z,1008.09
2018-08-28T11:22:25.470Z,1008.09
2018-08-28T11:23:25.423Z,1008.05
2018-08-28T11:24:25.458Z,1008.08
2018-08-28T11:25:25.385Z,1008.06
2018-08-28T11:26:25.383Z,1008.00
2018-08-28T11:27:25.364Z,1008.04
2018-08-28T11:28:25.353Z,1008.01
2018-08-28T11:29:25.420Z,1007.99
2018-08-28T11:30:25.374Z,1008.01
2018-08-28T11:31:25.475Z,1007.99
2018-08-28T11:32:25.308Z,1007.98
2018-08-28T11:33:25.299Z,1008.02
2018-08-28T11:34:25.287Z,1008.09
2018-08-28T11:35:25.326Z,1007.95
2018-08-28T11:36:25.265Z,1007.93
2018-08-28T11:37:25.254Z,1007.92
2018-08-28T11:38:25.266Z,1007.90
2018-08-28T11:39:25.240Z,1007.92
2018-08-28T11:40:25.271Z,1007.82
2018-08-28T11:41:25.216Z,1007.89
2018-08-28T11:42:25.206Z,1007.80
2018-08-28T11:43:25.194Z,1007.77
2018-08-28T11:44:25.178Z,1007.83
2018-08-28T11:45:25.215Z,1007.82
2018-08-28T11:46:25.163Z,1007.82
2018-08-28T11:47:25.147Z,1007.83
2018-08-28T11:48:25.139Z,1007.81
2018-08-28T11:49:25.126Z,1007.78
2018-08-28T11:50:25.157Z,1007.80
2018-08-28T11:51:25.115Z,1007.85
2018-08-28T11:52:25.094Z,1007.81
2018-08-28T11:53:25.080Z,1007.83
2018-08-28T11:54:25.134Z,1007.80
2018-08-28T11:55:25.103Z,1007.86
2018-08-28T11:56:25.055Z,1007.78
2018-08-28T11:57:25.036Z,1007.77
2018-08-28T11:58:25.025Z,1007.80
2018-08-28T11:59:25.014Z,1007.71
2018-08-28T12:00:25.047Z,1007.73
2018-08-28T12:01:24.991Z,1007.71
2018-08-28T12:02:24.980Z,1007.73
2018-08-28T12:03:24.972Z,1007.68
2018-08-28T12:04:24.963Z,1007.69
2018-08-28T12:05:25.072Z,1007.75
2018-08-28T12:06:24.939Z,1007.81
2018-08-28T12:07:25.011Z,1007.76
2018-08-28T12:08:24.942Z,1007.71
2018-08-28T12:09:24.903Z,1007.72
2018-08-28T12:10:25.047Z,1007.72
2018-08-28T12:11:24.896Z,1007.76
2018-08-28T12:12:24.873Z,1007.69
2018-08-28T12:13:24.863Z,1007.67
2018-08-28T12:14:24.852Z,1007.65
2018-08-28T12:15:24.883Z,1007.70
2018-08-28T12:16:24.829Z,1007.72
2018-08-28T12:17:24.821Z,1007.73
2018-08-28T12:18:24.807Z,1007.89
2018-08-28T12:19:24.800Z,1007.85
2018-08-28T12:20:24.872Z,1007.86
2018-08-28T12:21:24.773Z,1007.88
2018-08-28T12:22:24.769Z,1007.87
2018-08-28T12:23:24.751Z,1007.88
2018-08-28T12:24:24.744Z,1007.78
2018-08-28T12:25:24.792Z,1007.82
2018-08-28T12:26:24.718Z,1007.81
2018-08-28T12:27:24.715Z,1007.81
2018-08-28T12:28:24.698Z,1007.82
2018-08-28T12:29:24.686Z,1007.78
2018-08-28T12:30:24.730Z,1007.84
2018-08-28T12:31:24.684Z,1007.82
2018-08-28T12:32:24.656Z,1007.81
2018-08-28T12:33:24.646Z,1007.82
2018-08-28T12:34:24.639Z,1007.79
2018-08-28T12:35:24.673Z,1007.78
2018-08-28T12:36:24.614Z,1007.71
2018-08-28T12:37:24.610Z,1007.71
2018-08-28T12:38:24.594Z,1007.72
2018-08-28T12:39:24.589Z,1007.70
2018-08-28T12:40:24.615Z,1007.70
2018-08-28T12:41:24.560Z,1007.69
2018-08-28T12:42:24.565Z,1007.65
2018-08-28T12:43:24.538Z,1007.63
2018-08-28T12:44:24.529Z,1007.59
2018-08-28T12:45:24.579Z,1007.56
2018-08-28T12:46:24.509Z,1007.38
2018-08-28T12:47:24.507Z,1007.36
2018-08-28T12:48:24.490Z,1007.34
2018-08-28T12:49:24.474Z,1007.34
2018-08-28T12:50:24.516Z,1007.33
2018-08-28T12:51:24.577Z,1007.31
2018-08-28T12:52:24.446Z,1007.30
2018-08-28T12:53:24.434Z,1007.31
2018-08-28T12:54:24.425Z,1007.31
2018-08-28T12:55:24.458Z,1007.31
2018-08-28T12:56:24.401Z,1007.30
2018-08-28T12:57:24.389Z,1007.24
2018-08-28T12:58:24.379Z,1007.26
2018-08-28T12:59:24.423Z,1007.25
2018-08-28T13:00:24.509Z,1007.27
2018-08-28T13:01:24.350Z,1007.22
2018-08-28T13:02:24.533Z,1007.24
2018-08-28T13:03:24.325Z,1007.20
2018-08-28T13:04:24.315Z,1007.21
2018-08-28T13:05:24.349Z,1007.28